Ivorydale, Ohio
Current Conditions -  °F | °C
As of 4:33 AM on Thursday 27 Nov 2014 (Local Time) from KLUK Reporting Station
Overcast Overcast  
Wind Chill: 22°   Ceiling: 12000
Heat Index: 29°   Visibility: 9mi
Dew Point: 23°   Wind: 7mph
Humidity: 78%   Direction: 320°NW
Pressure: 30.14"   Gusts: NA
Location:  39.1668°N, 84.4971°W
Report Text: KLUK 270933Z AUTO 32006KT 9SM SCT026 OVC120 M02/M05 A3014 RMK AO2 T10171050
Loading
Personal Weather Stations






























Interactive Weather Map New forecast layout! Learn more

10-Day Weather Forecast

Advertisements
Track Severe Weather on mobile